Terminal Aerodrome Forecast
Issued by NWS

Home | Current Version | Previous Version | Text Only | Print | Product List | Glossary Off
Versions: 1 2 3 4 5 6 7 8 9 10 11 12 13 14 15 16 17

844
FTUS41 KCLE 221746
TAFFDY
TAF
KFDY 221746Z 2218/2318 21009KT P6SM VCSH SCT015 BKN060
     FM222000 26010KT P6SM SCT040 BKN080
     FM230800 26005KT 6SM BR BKN025 BKN040
     FM231100 27005KT 5SM BR SCT007 OVC015
     FM231300 29007KT P6SM BKN025=

USA.gov is the U.S. government's official web portal to all federal, state and local government web resources and services.